sensor_id;sensor_type;location;lat;lon;timestamp;P1;durP1;ratioP1;P2;durP2;ratioP2
40781;SDS011;26493;51.938;7.626;2023-10-19T00:00:33;21.95;;;12.23;;
40781;SDS011;26493;51.938;7.626;2023-10-19T00:03:01;20.83;;;11.45;;
40781;SDS011;26493;51.938;7.626;2023-10-19T00:05:31;21.10;;;11.40;;
40781;SDS011;26493;51.938;7.626;2023-10-19T00:07:58;25.33;;;12.45;;
40781;SDS011;26493;51.938;7.626;2023-10-19T00:10:25;20.90;;;11.80;;
40781;SDS011;26493;51.938;7.626;2023-10-19T00:12:54;20.48;;;11.38;;
40781;SDS011;26493;51.938;7.626;2023-10-19T00:15:33;21.13;;;11.80;;
40781;SDS011;26493;51.938;7.626;2023-10-19T00:18:03;19.80;;;11.10;;
40781;SDS011;26493;51.938;7.626;2023-10-19T00:23:10;21.15;;;12.07;;
40781;SDS011;26493;51.938;7.626;2023-10-19T00:25:38;23.10;;;12.57;;
40781;SDS011;26493;51.938;7.626;2023-10-19T00:28:06;20.73;;;12.15;;
40781;SDS011;26493;51.938;7.626;2023-10-19T00:30:32;23.83;;;13.18;;
40781;SDS011;26493;51.938;7.626;2023-10-19T00:33:01;21.92;;;12.55;;
40781;SDS011;26493;51.938;7.626;2023-10-19T00:35:33;20.70;;;11.85;;
40781;SDS011;26493;51.938;7.626;2023-10-19T00:38:00;23.30;;;12.15;;
40781;SDS011;26493;51.938;7.626;2023-10-19T00:40:49;20.88;;;12.07;;
40781;SDS011;26493;51.938;7.626;2023-10-19T00:43:30;20.20;;;12.05;;
40781;SDS011;26493;51.938;7.626;2023-10-19T00:46:03;20.58;;;12.30;;
40781;SDS011;26493;51.938;7.626;2023-10-19T00:48:48;22.27;;;12.98;;
40781;SDS011;26493;51.938;7.626;2023-10-19T00:51:14;21.63;;;12.52;;
40781;SDS011;26493;51.938;7.626;2023-10-19T00:53:57;21.33;;;12.32;;
40781;SDS011;26493;51.938;7.626;2023-10-19T00:56:24;20.52;;;12.35;;
40781;SDS011;26493;51.938;7.626;2023-10-19T00:58:53;22.00;;;13.52;;
40781;SDS011;26493;51.938;7.626;2023-10-19T01:01:25;22.90;;;12.73;;
40781;SDS011;26493;51.938;7.626;2023-10-19T01:06:22;22.57;;;16.53;;
40781;SDS011;26493;51.938;7.626;2023-10-19T01:08:48;22.58;;;16.15;;
40781;SDS011;26493;51.938;7.626;2023-10-19T01:11:16;24.70;;;16.88;;
40781;SDS011;26493;51.938;7.626;2023-10-19T01:13:46;22.70;;;17.85;;
40781;SDS011;26493;51.938;7.626;2023-10-19T01:16:16;24.02;;;17.77;;
40781;SDS011;26493;51.938;7.626;2023-10-19T01:18:51;23.58;;;17.63;;
40781;SDS011;26493;51.938;7.626;2023-10-19T01:21:23;25.08;;;17.80;;
40781;SDS011;26493;51.938;7.626;2023-10-19T01:24:01;24.02;;;18.20;;
40781;SDS011;26493;51.938;7.626;2023-10-19T01:26:31;23.48;;;16.90;;
40781;SDS011;26493;51.938;7.626;2023-10-19T01:29:02;24.00;;;18.17;;
40781;SDS011;26493;51.938;7.626;2023-10-19T01:31:38;24.58;;;18.20;;
40781;SDS011;26493;51.938;7.626;2023-10-19T01:34:16;24.60;;;18.08;;
40781;SDS011;26493;51.938;7.626;2023-10-19T01:36:45;25.75;;;18.20;;
40781;SDS011;26493;51.938;7.626;2023-10-19T01:39:15;24.65;;;18.65;;
40781;SDS011;26493;51.938;7.626;2023-10-19T01:41:43;27.80;;;18.70;;
40781;SDS011;26493;51.938;7.626;2023-10-19T01:44:10;23.83;;;18.00;;
40781;SDS011;26493;51.938;7.626;2023-10-19T01:46:38;24.38;;;17.95;;
40781;SDS011;26493;51.938;7.626;2023-10-19T01:49:05;24.30;;;18.67;;
40781;SDS011;26493;51.938;7.626;2023-10-19T01:54:03;23.05;;;17.58;;
40781;SDS011;26493;51.938;7.626;2023-10-19T01:56:30;25.02;;;17.50;;
40781;SDS011;26493;51.938;7.626;2023-10-19T01:58:58;23.20;;;18.27;;
40781;SDS011;26493;51.938;7.626;2023-10-19T02:01:24;24.52;;;17.77;;
40781;SDS011;26493;51.938;7.626;2023-10-19T02:04:00;23.92;;;17.63;;
40781;SDS011;26493;51.938;7.626;2023-10-19T02:06:29;23.67;;;18.63;;
40781;SDS011;26493;51.938;7.626;2023-10-19T02:08:59;25.88;;;19.40;;
40781;SDS011;26493;51.938;7.626;2023-10-19T02:11:26;25.48;;;19.63;;
40781;SDS011;26493;51.938;7.626;2023-10-19T02:13:53;25.40;;;18.90;;
40781;SDS011;26493;51.938;7.626;2023-10-19T02:16:21;23.58;;;18.77;;
40781;SDS011;26493;51.938;7.626;2023-10-19T02:18:48;23.45;;;18.63;;
40781;SDS011;26493;51.938;7.626;2023-10-19T02:21:14;27.50;;;20.42;;
40781;SDS011;26493;51.938;7.626;2023-10-19T02:23:46;25.02;;;19.20;;
40781;SDS011;26493;51.938;7.626;2023-10-19T02:28:41;26.02;;;19.05;;
40781;SDS011;26493;51.938;7.626;2023-10-19T02:31:09;29.00;;;20.52;;
40781;SDS011;26493;51.938;7.626;2023-10-19T02:33:44;24.38;;;19.88;;
40781;SDS011;26493;51.938;7.626;2023-10-19T02:36:17;26.90;;;19.85;;
40781;SDS011;26493;51.938;7.626;2023-10-19T02:38:44;25.30;;;19.35;;
40781;SDS011;26493;51.938;7.626;2023-10-19T02:41:16;27.10;;;20.80;;
40781;SDS011;26493;51.938;7.626;2023-10-19T02:43:43;28.38;;;20.70;;
40781;SDS011;26493;51.938;7.626;2023-10-19T02:46:16;28.63;;;20.73;;
40781;SDS011;26493;51.938;7.626;2023-10-19T02:48:43;27.83;;;20.35;;
40781;SDS011;26493;51.938;7.626;2023-10-19T02:51:15;30.02;;;22.02;;
40781;SDS011;26493;51.938;7.626;2023-10-19T02:53:44;28.55;;;20.02;;
40781;SDS011;26493;51.938;7.626;2023-10-19T02:56:14;29.70;;;21.38;;
40781;SDS011;26493;51.938;7.626;2023-10-19T02:58:42;27.67;;;21.00;;
40781;SDS011;26493;51.938;7.626;2023-10-19T03:01:12;25.35;;;19.98;;
40781;SDS011;26493;51.938;7.626;2023-10-19T03:03:39;28.08;;;21.98;;
40781;SDS011;26493;51.938;7.626;2023-10-19T03:06:08;27.60;;;21.92;;
40781;SDS011;26493;51.938;7.626;2023-10-19T03:08:35;29.17;;;21.73;;
40781;SDS011;26493;51.938;7.626;2023-10-19T03:11:01;27.98;;;20.90;;
40781;SDS011;26493;51.938;7.626;2023-10-19T03:13:30;26.65;;;20.55;;
40781;SDS011;26493;51.938;7.626;2023-10-19T03:15:59;26.50;;;20.67;;
40781;SDS011;26493;51.938;7.626;2023-10-19T03:18:26;31.02;;;20.75;;
40781;SDS011;26493;51.938;7.626;2023-10-19T03:20:53;28.80;;;21.13;;
40781;SDS011;26493;51.938;7.626;2023-10-19T03:23:19;25.42;;;19.90;;
40781;SDS011;26493;51.938;7.626;2023-10-19T03:25:46;27.52;;;20.65;;
40781;SDS011;26493;51.938;7.626;2023-10-19T03:28:23;27.05;;;20.20;;
40781;SDS011;26493;51.938;7.626;2023-10-19T03:30:51;26.83;;;20.90;;
40781;SDS011;26493;51.938;7.626;2023-10-19T03:33:20;26.40;;;21.50;;
40781;SDS011;26493;51.938;7.626;2023-10-19T03:35:51;29.17;;;21.05;;
40781;SDS011;26493;51.938;7.626;2023-10-19T03:38:19;28.65;;;20.40;;
40781;SDS011;26493;51.938;7.626;2023-10-19T03:43:24;25.30;;;20.17;;
40781;SDS011;26493;51.938;7.626;2023-10-19T03:45:52;28.98;;;20.80;;
40781;SDS011;26493;51.938;7.626;2023-10-19T03:48:21;27.90;;;20.65;;
40781;SDS011;26493;51.938;7.626;2023-10-19T03:50:51;26.33;;;19.23;;
40781;SDS011;26493;51.938;7.626;2023-10-19T03:53:18;25.70;;;19.80;;
40781;SDS011;26493;51.938;7.626;2023-10-19T03:55:46;27.02;;;21.05;;
40781;SDS011;26493;51.938;7.626;2023-10-19T03:58:12;29.85;;;22.27;;
40781;SDS011;26493;51.938;7.626;2023-10-19T04:00:38;27.48;;;21.30;;
40781;SDS011;26493;51.938;7.626;2023-10-19T04:03:04;27.10;;;21.40;;
40781;SDS011;26493;51.938;7.626;2023-10-19T04:05:30;26.98;;;21.10;;
40781;SDS011;26493;51.938;7.626;2023-10-19T04:07:59;27.23;;;21.15;;
40781;SDS011;26493;51.938;7.626;2023-10-19T04:10:26;28.33;;;21.65;;
40781;SDS011;26493;51.938;7.626;2023-10-19T04:13:01;27.35;;;20.92;;
40781;SDS011;26493;51.938;7.626;2023-10-19T04:15:27;27.55;;;21.15;;
40781;SDS011;26493;51.938;7.626;2023-10-19T04:17:58;25.50;;;21.23;;
40781;SDS011;26493;51.938;7.626;2023-10-19T04:20:25;26.67;;;21.27;;
40781;SDS011;26493;51.938;7.626;2023-10-19T04:22:51;24.95;;;20.70;;
40781;SDS011;26493;51.938;7.626;2023-10-19T04:25:21;25.63;;;20.90;;
40781;SDS011;26493;51.938;7.626;2023-10-19T04:27:50;29.95;;;21.08;;
40781;SDS011;26493;51.938;7.626;2023-10-19T04:30:16;26.20;;;20.77;;
40781;SDS011;26493;51.938;7.626;2023-10-19T04:32:52;26.30;;;20.33;;
40781;SDS011;26493;51.938;7.626;2023-10-19T04:37:50;27.75;;;21.15;;
40781;SDS011;26493;51.938;7.626;2023-10-19T04:40:17;28.90;;;21.75;;
40781;SDS011;26493;51.938;7.626;2023-10-19T04:42:43;27.13;;;21.00;;
40781;SDS011;26493;51.938;7.626;2023-10-19T04:45:09;29.08;;;20.20;;
40781;SDS011;26493;51.938;7.626;2023-10-19T04:47:36;26.17;;;19.98;;
40781;SDS011;26493;51.938;7.626;2023-10-19T04:50:03;26.25;;;20.25;;
40781;SDS011;26493;51.938;7.626;2023-10-19T04:52:29;25.88;;;20.80;;
40781;SDS011;26493;51.938;7.626;2023-10-19T04:54:57;31.15;;;20.13;;
40781;SDS011;26493;51.938;7.626;2023-10-19T04:57:23;26.53;;;19.87;;
40781;SDS011;26493;51.938;7.626;2023-10-19T04:59:51;27.60;;;19.73;;
40781;SDS011;26493;51.938;7.626;2023-10-19T05:02:17;26.92;;;20.65;;
40781;SDS011;26493;51.938;7.626;2023-10-19T05:04:43;26.75;;;20.63;;
40781;SDS011;26493;51.938;7.626;2023-10-19T05:07:10;27.27;;;20.52;;
40781;SDS011;26493;51.938;7.626;2023-10-19T05:09:42;31.77;;;21.58;;
40781;SDS011;26493;51.938;7.626;2023-10-19T05:12:08;27.33;;;19.88;;
40781;SDS011;26493;51.938;7.626;2023-10-19T05:14:38;26.17;;;19.73;;
40781;SDS011;26493;51.938;7.626;2023-10-19T05:17:08;26.70;;;18.63;;
40781;SDS011;26493;51.938;7.626;2023-10-19T05:19:37;25.65;;;20.20;;
40781;SDS011;26493;51.938;7.626;2023-10-19T05:22:04;25.52;;;20.05;;
40781;SDS011;26493;51.938;7.626;2023-10-19T05:24:31;27.05;;;19.67;;
40781;SDS011;26493;51.938;7.626;2023-10-19T05:26:57;29.05;;;20.38;;
40781;SDS011;26493;51.938;7.626;2023-10-19T05:29:23;26.80;;;19.67;;
40781;SDS011;26493;51.938;7.626;2023-10-19T05:31:52;27.58;;;19.35;;
40781;SDS011;26493;51.938;7.626;2023-10-19T05:34:22;26.13;;;19.75;;
40781;SDS011;26493;51.938;7.626;2023-10-19T05:36:48;27.27;;;20.58;;
40781;SDS011;26493;51.938;7.626;2023-10-19T05:39:15;30.70;;;20.80;;
40781;SDS011;26493;51.938;7.626;2023-10-19T05:41:41;27.23;;;19.83;;
40781;SDS011;26493;51.938;7.626;2023-10-19T05:44:07;28.98;;;20.65;;
40781;SDS011;26493;51.938;7.626;2023-10-19T05:46:33;29.10;;;19.90;;
40781;SDS011;26493;51.938;7.626;2023-10-19T05:48:59;29.00;;;20.52;;
40781;SDS011;26493;51.938;7.626;2023-10-19T05:51:28;28.15;;;20.65;;
40781;SDS011;26493;51.938;7.626;2023-10-19T05:53:54;25.33;;;20.38;;
40781;SDS011;26493;51.938;7.626;2023-10-19T05:56:26;27.63;;;20.27;;
40781;SDS011;26493;51.938;7.626;2023-10-19T05:58:52;27.58;;;20.85;;
40781;SDS011;26493;51.938;7.626;2023-10-19T06:01:19;28.20;;;21.25;;
40781;SDS011;26493;51.938;7.626;2023-10-19T06:03:45;26.35;;;19.75;;
40781;SDS011;26493;51.938;7.626;2023-10-19T06:06:11;26.10;;;19.85;;
40781;SDS011;26493;51.938;7.626;2023-10-19T06:08:37;27.52;;;20.33;;
40781;SDS011;26493;51.938;7.626;2023-10-19T06:11:03;29.65;;;19.88;;
40781;SDS011;26493;51.938;7.626;2023-10-19T06:13:29;26.65;;;20.02;;
40781;SDS011;26493;51.938;7.626;2023-10-19T06:15:56;25.75;;;19.60;;
40781;SDS011;26493;51.938;7.626;2023-10-19T06:18:22;31.10;;;21.02;;
40781;SDS011;26493;51.938;7.626;2023-10-19T06:20:49;28.00;;;20.77;;
40781;SDS011;26493;51.938;7.626;2023-10-19T06:23:16;28.13;;;19.80;;
40781;SDS011;26493;51.938;7.626;2023-10-19T06:25:43;24.88;;;20.08;;
40781;SDS011;26493;51.938;7.626;2023-10-19T06:28:09;24.60;;;19.17;;
40781;SDS011;26493;51.938;7.626;2023-10-19T06:30:39;25.83;;;19.73;;
40781;SDS011;26493;51.938;7.626;2023-10-19T06:33:05;25.40;;;19.85;;
40781;SDS011;26493;51.938;7.626;2023-10-19T06:35:32;24.70;;;19.65;;
40781;SDS011;26493;51.938;7.626;2023-10-19T06:37:59;25.40;;;18.90;;
40781;SDS011;26493;51.938;7.626;2023-10-19T06:40:25;25.20;;;19.42;;
40781;SDS011;26493;51.938;7.626;2023-10-19T06:42:55;25.10;;;17.48;;
40781;SDS011;26493;51.938;7.626;2023-10-19T06:45:21;24.23;;;18.80;;
40781;SDS011;26493;51.938;7.626;2023-10-19T06:47:48;27.65;;;19.00;;
40781;SDS011;26493;51.938;7.626;2023-10-19T06:50:15;26.42;;;18.13;;
40781;SDS011;26493;51.938;7.626;2023-10-19T06:52:42;28.60;;;19.45;;
40781;SDS011;26493;51.938;7.626;2023-10-19T06:55:08;27.13;;;18.52;;
40781;SDS011;26493;51.938;7.626;2023-10-19T06:58:04;24.95;;;19.15;;
40781;SDS011;26493;51.938;7.626;2023-10-19T07:00:30;23.20;;;18.00;;
40781;SDS011;26493;51.938;7.626;2023-10-19T07:02:56;25.10;;;18.73;;
40781;SDS011;26493;51.938;7.626;2023-10-19T07:05:25;22.50;;;18.55;;
40781;SDS011;26493;51.938;7.626;2023-10-19T07:07:55;25.25;;;18.55;;
40781;SDS011;26493;51.938;7.626;2023-10-19T07:10:21;23.45;;;18.80;;
40781;SDS011;26493;51.938;7.626;2023-10-19T07:12:48;26.05;;;18.63;;
40781;SDS011;26493;51.938;7.626;2023-10-19T07:15:14;24.00;;;18.85;;
40781;SDS011;26493;51.938;7.626;2023-10-19T07:17:44;23.73;;;18.20;;
40781;SDS011;26493;51.938;7.626;2023-10-19T07:20:11;23.98;;;18.73;;
40781;SDS011;26493;51.938;7.626;2023-10-19T07:22:56;25.30;;;17.98;;
40781;SDS011;26493;51.938;7.626;2023-10-19T07:25:23;25.60;;;18.40;;
40781;SDS011;26493;51.938;7.626;2023-10-19T07:27:51;23.70;;;18.17;;
40781;SDS011;26493;51.938;7.626;2023-10-19T07:30:17;26.08;;;18.70;;
40781;SDS011;26493;51.938;7.626;2023-10-19T07:32:48;24.33;;;18.27;;
40781;SDS011;26493;51.938;7.626;2023-10-19T07:35:17;20.48;;;16.05;;
40781;SDS011;26493;51.938;7.626;2023-10-19T07:37:43;22.27;;;16.83;;
40781;SDS011;26493;51.938;7.626;2023-10-19T07:40:10;20.65;;;16.55;;
40781;SDS011;26493;51.938;7.626;2023-10-19T07:42:39;24.40;;;17.25;;
40781;SDS011;26493;51.938;7.626;2023-10-19T07:45:05;22.20;;;17.00;;
40781;SDS011;26493;51.938;7.626;2023-10-19T07:47:36;23.25;;;16.35;;
40781;SDS011;26493;51.938;7.626;2023-10-19T07:50:05;21.67;;;15.82;;
40781;SDS011;26493;51.938;7.626;2023-10-19T07:52:31;20.08;;;15.63;;
40781;SDS011;26493;51.938;7.626;2023-10-19T07:55:00;20.50;;;15.63;;
40781;SDS011;26493;51.938;7.626;2023-10-19T07:57:27;20.48;;;15.02;;
40781;SDS011;26493;51.938;7.626;2023-10-19T07:59:54;21.33;;;15.68;;
40781;SDS011;26493;51.938;7.626;2023-10-19T08:02:21;21.20;;;15.93;;
40781;SDS011;26493;51.938;7.626;2023-10-19T08:04:49;21.35;;;15.43;;
40781;SDS011;26493;51.938;7.626;2023-10-19T08:07:16;22.42;;;15.63;;
40781;SDS011;26493;51.938;7.626;2023-10-19T08:09:42;20.38;;;15.02;;
40781;SDS011;26493;51.938;7.626;2023-10-19T08:12:09;20.05;;;15.70;;
40781;SDS011;26493;51.938;7.626;2023-10-19T08:14:36;20.40;;;16.13;;
40781;SDS011;26493;51.938;7.626;2023-10-19T08:17:03;25.75;;;15.70;;
40781;SDS011;26493;51.938;7.626;2023-10-19T08:19:29;20.58;;;16.08;;
40781;SDS011;26493;51.938;7.626;2023-10-19T08:21:56;21.15;;;15.38;;
40781;SDS011;26493;51.938;7.626;2023-10-19T08:24:22;21.55;;;16.35;;
40781;SDS011;26493;51.938;7.626;2023-10-19T08:26:49;18.85;;;14.63;;
40781;SDS011;26493;51.938;7.626;2023-10-19T08:29:16;18.45;;;14.43;;
40781;SDS011;26493;51.938;7.626;2023-10-19T08:31:44;18.65;;;14.38;;
40781;SDS011;26493;51.938;7.626;2023-10-19T08:34:11;20.90;;;14.90;;
40781;SDS011;26493;51.938;7.626;2023-10-19T08:36:37;19.45;;;15.75;;
40781;SDS011;26493;51.938;7.626;2023-10-19T08:39:07;18.38;;;14.77;;
40781;SDS011;26493;51.938;7.626;2023-10-19T08:41:34;16.95;;;14.02;;
40781;SDS011;26493;51.938;7.626;2023-10-19T08:44:02;18.95;;;14.82;;
40781;SDS011;26493;51.938;7.626;2023-10-19T08:46:28;19.95;;;14.93;;
40781;SDS011;26493;51.938;7.626;2023-10-19T08:48:57;18.05;;;14.23;;
40781;SDS011;26493;51.938;7.626;2023-10-19T08:51:24;20.92;;;14.43;;
40781;SDS011;26493;51.938;7.626;2023-10-19T08:53:53;20.42;;;14.10;;
40781;SDS011;26493;51.938;7.626;2023-10-19T08:56:19;19.00;;;13.60;;
40781;SDS011;26493;51.938;7.626;2023-10-19T09:01:14;18.05;;;13.02;;
40781;SDS011;26493;51.938;7.626;2023-10-19T09:03:40;19.38;;;13.25;;
40781;SDS011;26493;51.938;7.626;2023-10-19T09:06:06;19.90;;;13.50;;
40781;SDS011;26493;51.938;7.626;2023-10-19T09:08:33;20.17;;;12.57;;
40781;SDS011;26493;51.938;7.626;2023-10-19T09:11:08;18.05;;;12.98;;
40781;SDS011;26493;51.938;7.626;2023-10-19T09:13:52;18.58;;;13.35;;
40781;SDS011;26493;51.938;7.626;2023-10-19T09:16:21;20.42;;;13.00;;
40781;SDS011;26493;51.938;7.626;2023-10-19T09:18:48;20.23;;;13.85;;
40781;SDS011;26493;51.938;7.626;2023-10-19T09:21:15;18.10;;;13.50;;
40781;SDS011;26493;51.938;7.626;2023-10-19T09:24:00;20.20;;;12.88;;
40781;SDS011;26493;51.938;7.626;2023-10-19T09:26:26;18.02;;;13.18;;
40781;SDS011;26493;51.938;7.626;2023-10-19T09:28:53;18.58;;;13.57;;
40781;SDS011;26493;51.938;7.626;2023-10-19T09:31:19;18.83;;;12.77;;
40781;SDS011;26493;51.938;7.626;2023-10-19T09:33:47;18.10;;;11.55;;
40781;SDS011;26493;51.938;7.626;2023-10-19T09:36:19;18.30;;;11.50;;
40781;SDS011;26493;51.938;7.626;2023-10-19T09:38:49;22.17;;;11.23;;
40781;SDS011;26493;51.938;7.626;2023-10-19T09:41:21;18.50;;;10.80;;
40781;SDS011;26493;51.938;7.626;2023-10-19T09:43:48;20.80;;;10.77;;
40781;SDS011;26493;51.938;7.626;2023-10-19T09:46:32;16.67;;;11.18;;
40781;SDS011;26493;51.938;7.626;2023-10-19T09:49:02;18.42;;;11.02;;
40781;SDS011;26493;51.938;7.626;2023-10-19T09:51:28;17.73;;;11.10;;
40781;SDS011;26493;51.938;7.626;2023-10-19T09:56:40;18.38;;;11.10;;
40781;SDS011;26493;51.938;7.626;2023-10-19T10:04:31;16.55;;;10.60;;
40781;SDS011;26493;51.938;7.626;2023-10-19T10:06:57;18.17;;;11.00;;
40781;SDS011;26493;51.938;7.626;2023-10-19T10:09:25;17.45;;;10.50;;
40781;SDS011;26493;51.938;7.626;2023-10-19T10:11:52;17.90;;;9.68;;
40781;SDS011;26493;51.938;7.626;2023-10-19T10:14:25;18.88;;;10.77;;
40781;SDS011;26493;51.938;7.626;2023-10-19T10:17:02;16.25;;;10.73;;
40781;SDS011;26493;51.938;7.626;2023-10-19T10:19:30;17.70;;;11.02;;
40781;SDS011;26493;51.938;7.626;2023-10-19T10:22:09;17.80;;;11.05;;
40781;SDS011;26493;51.938;7.626;2023-10-19T10:24:42;20.27;;;11.00;;
40781;SDS011;26493;51.938;7.626;2023-10-19T10:27:09;18.08;;;10.88;;
40781;SDS011;26493;51.938;7.626;2023-10-19T10:29:58;18.00;;;11.38;;
40781;SDS011;26493;51.938;7.626;2023-10-19T10:37:57;18.70;;;10.45;;
40781;SDS011;26493;51.938;7.626;2023-10-19T10:40:24;18.60;;;10.50;;
40781;SDS011;26493;51.938;7.626;2023-10-19T10:42:56;16.58;;;10.55;;
40781;SDS011;26493;51.938;7.626;2023-10-19T10:45:30;17.08;;;10.82;;
40781;SDS011;26493;51.938;7.626;2023-10-19T10:47:56;20.55;;;10.65;;
40781;SDS011;26493;51.938;7.626;2023-10-19T10:50:22;17.45;;;10.57;;
40781;SDS011;26493;51.938;7.626;2023-10-19T10:52:49;16.30;;;9.88;;
40781;SDS011;26493;51.938;7.626;2023-10-19T10:55:18;20.52;;;10.45;;
40781;SDS011;26493;51.938;7.626;2023-10-19T10:57:44;16.90;;;9.82;;
40781;SDS011;26493;51.938;7.626;2023-10-19T11:00:11;14.88;;;9.93;;
40781;SDS011;26493;51.938;7.626;2023-10-19T11:02:44;16.73;;;10.02;;
40781;SDS011;26493;51.938;7.626;2023-10-19T11:05:15;15.38;;;10.30;;
40781;SDS011;26493;51.938;7.626;2023-10-19T11:10:30;17.30;;;10.07;;
40781;SDS011;26493;51.938;7.626;2023-10-19T11:13:03;16.67;;;9.65;;
40781;SDS011;26493;51.938;7.626;2023-10-19T11:15:29;18.05;;;10.20;;
40781;SDS011;26493;51.938;7.626;2023-10-19T11:17:56;19.30;;;10.20;;
40781;SDS011;26493;51.938;7.626;2023-10-19T11:20:22;15.95;;;10.32;;
40781;SDS011;26493;51.938;7.626;2023-10-19T11:22:50;19.77;;;10.85;;
40781;SDS011;26493;51.938;7.626;2023-10-19T11:27:45;15.65;;;9.60;;
40781;SDS011;26493;51.938;7.626;2023-10-19T11:30:22;15.80;;;9.70;;
40781;SDS011;26493;51.938;7.626;2023-10-19T11:32:48;17.67;;;10.23;;
40781;SDS011;26493;51.938;7.626;2023-10-19T11:35:18;17.52;;;10.35;;
40781;SDS011;26493;51.938;7.626;2023-10-19T11:37:48;17.80;;;11.20;;
40781;SDS011;26493;51.938;7.626;2023-10-19T11:40:14;15.43;;;10.80;;
40781;SDS011;26493;51.938;7.626;2023-10-19T11:42:40;16.95;;;10.77;;
40781;SDS011;26493;51.938;7.626;2023-10-19T11:45:07;18.85;;;10.93;;
40781;SDS011;26493;51.938;7.626;2023-10-19T11:47:33;17.42;;;10.50;;
40781;SDS011;26493;51.938;7.626;2023-10-19T11:49:59;15.93;;;11.30;;
40781;SDS011;26493;51.938;7.626;2023-10-19T11:52:26;16.33;;;11.10;;
40781;SDS011;26493;51.938;7.626;2023-10-19T11:54:53;18.63;;;11.07;;
40781;SDS011;26493;51.938;7.626;2023-10-19T11:57:19;15.63;;;10.70;;
40781;SDS011;26493;51.938;7.626;2023-10-19T11:59:45;17.25;;;10.98;;
40781;SDS011;26493;51.938;7.626;2023-10-19T12:02:17;16.73;;;11.32;;
40781;SDS011;26493;51.938;7.626;2023-10-19T12:04:43;19.73;;;11.63;;
40781;SDS011;26493;51.938;7.626;2023-10-19T12:07:10;15.80;;;11.05;;
40781;SDS011;26493;51.938;7.626;2023-10-19T12:09:36;15.77;;;11.25;;
40781;SDS011;26493;51.938;7.626;2023-10-19T12:12:06;17.77;;;11.20;;
40781;SDS011;26493;51.938;7.626;2023-10-19T12:14:32;16.27;;;10.75;;
40781;SDS011;26493;51.938;7.626;2023-10-19T12:17:01;16.30;;;10.65;;
40781;SDS011;26493;51.938;7.626;2023-10-19T12:19:30;16.40;;;11.02;;
40781;SDS011;26493;51.938;7.626;2023-10-19T12:21:56;16.58;;;11.57;;
40781;SDS011;26493;51.938;7.626;2023-10-19T12:24:23;16.38;;;11.52;;
40781;SDS011;26493;51.938;7.626;2023-10-19T12:26:49;17.27;;;10.30;;
40781;SDS011;26493;51.938;7.626;2023-10-19T12:29:16;20.05;;;11.15;;
40781;SDS011;26493;51.938;7.626;2023-10-19T12:31:46;18.95;;;11.98;;
40781;SDS011;26493;51.938;7.626;2023-10-19T12:34:12;16.25;;;11.52;;
40781;SDS011;26493;51.938;7.626;2023-10-19T12:36:38;18.75;;;12.15;;
40781;SDS011;26493;51.938;7.626;2023-10-19T12:39:05;16.85;;;12.68;;
40781;SDS011;26493;51.938;7.626;2023-10-19T12:41:32;17.80;;;12.63;;
40781;SDS011;26493;51.938;7.626;2023-10-19T12:43:58;17.60;;;12.80;;
40781;SDS011;26493;51.938;7.626;2023-10-19T12:46:32;17.48;;;12.57;;
40781;SDS011;26493;51.938;7.626;2023-10-19T12:49:01;17.08;;;12.10;;
40781;SDS011;26493;51.938;7.626;2023-10-19T12:51:27;17.42;;;11.55;;
40781;SDS011;26493;51.938;7.626;2023-10-19T12:53:55;16.27;;;12.55;;
40781;SDS011;26493;51.938;7.626;2023-10-19T12:56:21;17.85;;;12.13;;
40781;SDS011;26493;51.938;7.626;2023-10-19T12:58:54;18.33;;;12.40;;
40781;SDS011;26493;51.938;7.626;2023-10-19T13:01:20;20.42;;;12.48;;
40781;SDS011;26493;51.938;7.626;2023-10-19T13:03:46;20.50;;;12.63;;
40781;SDS011;26493;51.938;7.626;2023-10-19T13:06:14;17.52;;;11.63;;
40781;SDS011;26493;51.938;7.626;2023-10-19T13:08:40;17.05;;;12.32;;
40781;SDS011;26493;51.938;7.626;2023-10-19T13:11:07;15.45;;;11.80;;
40781;SDS011;26493;51.938;7.626;2023-10-19T13:13:33;17.67;;;11.60;;
40781;SDS011;26493;51.938;7.626;2023-10-19T13:16:01;16.10;;;11.53;;
40781;SDS011;26493;51.938;7.626;2023-10-19T13:18:36;18.27;;;12.32;;
40781;SDS011;26493;51.938;7.626;2023-10-19T13:23:34;17.70;;;11.80;;
40781;SDS011;26493;51.938;7.626;2023-10-19T13:26:01;17.98;;;12.32;;
40781;SDS011;26493;51.938;7.626;2023-10-19T13:28:33;16.67;;;12.00;;
40781;SDS011;26493;51.938;7.626;2023-10-19T13:31:00;16.48;;;11.63;;
40781;SDS011;26493;51.938;7.626;2023-10-19T13:33:26;20.00;;;13.15;;
40781;SDS011;26493;51.938;7.626;2023-10-19T13:35:53;19.20;;;12.55;;
40781;SDS011;26493;51.938;7.626;2023-10-19T13:38:19;17.05;;;11.77;;
40781;SDS011;26493;51.938;7.626;2023-10-19T13:40:45;16.92;;;11.90;;
40781;SDS011;26493;51.938;7.626;2023-10-19T13:43:11;17.38;;;11.70;;
40781;SDS011;26493;51.938;7.626;2023-10-19T13:45:43;18.05;;;12.40;;
40781;SDS011;26493;51.938;7.626;2023-10-19T13:48:09;19.35;;;12.80;;
40781;SDS011;26493;51.938;7.626;2023-10-19T13:50:40;18.48;;;11.52;;
40781;SDS011;26493;51.938;7.626;2023-10-19T13:53:07;18.30;;;12.35;;
40781;SDS011;26493;51.938;7.626;2023-10-19T13:55:35;17.95;;;12.40;;
40781;SDS011;26493;51.938;7.626;2023-10-19T13:58:04;18.98;;;12.10;;
40781;SDS011;26493;51.938;7.626;2023-10-19T14:00:31;16.67;;;11.60;;
40781;SDS011;26493;51.938;7.626;2023-10-19T14:03:06;16.42;;;11.57;;
40781;SDS011;26493;51.938;7.626;2023-10-19T14:05:39;16.95;;;11.70;;
40781;SDS011;26493;51.938;7.626;2023-10-19T14:08:07;18.77;;;12.20;;
40781;SDS011;26493;51.938;7.626;2023-10-19T14:10:34;16.73;;;11.80;;
40781;SDS011;26493;51.938;7.626;2023-10-19T14:13:00;19.40;;;11.85;;
40781;SDS011;26493;51.938;7.626;2023-10-19T14:15:26;18.98;;;11.73;;
40781;SDS011;26493;51.938;7.626;2023-10-19T14:17:55;19.33;;;11.43;;
40781;SDS011;26493;51.938;7.626;2023-10-19T14:20:24;17.60;;;11.52;;
40781;SDS011;26493;51.938;7.626;2023-10-19T14:22:51;17.52;;;11.75;;
40781;SDS011;26493;51.938;7.626;2023-10-19T14:25:20;16.00;;;11.20;;
40781;SDS011;26493;51.938;7.626;2023-10-19T14:27:48;17.93;;;12.20;;
40781;SDS011;26493;51.938;7.626;2023-10-19T14:30:15;17.65;;;12.10;;
40781;SDS011;26493;51.938;7.626;2023-10-19T14:32:45;17.05;;;12.13;;
40781;SDS011;26493;51.938;7.626;2023-10-19T14:35:16;17.38;;;11.60;;
40781;SDS011;26493;51.938;7.626;2023-10-19T14:37:43;16.57;;;11.40;;
40781;SDS011;26493;51.938;7.626;2023-10-19T14:40:09;16.98;;;11.25;;
40781;SDS011;26493;51.938;7.626;2023-10-19T14:42:39;20.67;;;11.90;;
40781;SDS011;26493;51.938;7.626;2023-10-19T14:45:06;20.67;;;11.82;;
40781;SDS011;26493;51.938;7.626;2023-10-19T14:47:34;18.65;;;11.50;;
40781;SDS011;26493;51.938;7.626;2023-10-19T14:50:01;18.58;;;11.32;;
40781;SDS011;26493;51.938;7.626;2023-10-19T14:52:27;19.70;;;11.30;;
40781;SDS011;26493;51.938;7.626;2023-10-19T14:54:53;18.23;;;11.65;;
40781;SDS011;26493;51.938;7.626;2023-10-19T14:57:20;18.73;;;11.70;;
40781;SDS011;26493;51.938;7.626;2023-10-19T14:59:46;17.17;;;11.68;;
40781;SDS011;26493;51.938;7.626;2023-10-19T15:02:13;20.95;;;12.20;;
40781;SDS011;26493;51.938;7.626;2023-10-19T15:04:39;17.63;;;10.93;;
40781;SDS011;26493;51.938;7.626;2023-10-19T15:07:05;18.75;;;11.68;;